createdAt,value
2017-02-20T00:06:49.703Z,51
2017-02-20T00:18:04.424Z,51
2017-02-20T00:37:01.682Z,52
2017-02-20T00:57:26.528Z,48
2017-02-20T01:07:30.680Z,49
2017-02-20T01:16:45.004Z,53
2017-02-20T01:26:58.674Z,50
2017-02-20T01:37:05.802Z,46
2017-02-20T01:47:25.282Z,47
2017-02-20T01:57:22.682Z,47
2017-02-20T02:07:13.146Z,52
2017-02-20T02:27:08.731Z,43
2017-02-20T02:37:26.222Z,43
2017-02-20T02:58:12.717Z,39
2017-02-20T03:06:56.784Z,35
2017-02-20T03:16:59.333Z,36
2017-02-20T03:37:22.586Z,39
2017-02-20T03:47:38.072Z,38
2017-02-20T03:57:04.171Z,41
2017-02-20T04:07:15.344Z,41
2017-02-20T04:17:05.081Z,45
2017-02-20T04:47:00.070Z,49
2017-02-20T05:07:43.601Z,48
2017-02-20T05:27:08.983Z,44
2017-02-20T05:37:20.205Z,44
2017-02-20T05:47:15.423Z,42
2017-02-20T05:57:12.872Z,40
2017-02-20T06:07:12.242Z,38
2017-02-20T06:17:25.423Z,35
2017-02-20T06:26:45.260Z,34
2017-02-20T06:36:56.965Z,30
2017-02-20T06:47:41.323Z,30
2017-02-20T06:57:01.592Z,25
2017-02-20T07:07:11.587Z,26
2017-02-20T07:17:35.183Z,24
2017-02-20T07:26:45.315Z,25
2017-02-20T07:57:09.674Z,28
2017-02-20T08:07:20.970Z,29
2017-02-20T08:37:03.771Z,26
2017-02-20T08:47:29.210Z,23
2017-02-20T08:56:45.342Z,19
2017-02-20T09:07:20.547Z,17
2017-02-20T09:17:17.308Z,19
2017-02-20T09:27:10.925Z,15
2017-02-20T10:27:15.271Z,15
2017-02-20T10:37:57.128Z,20
2017-02-20T10:47:03.091Z,15
2017-02-20T10:56:59.088Z,14
2017-02-20T11:06:45.525Z,14
2017-02-20T11:16:45.490Z,16
2017-02-20T11:26:45.488Z,16
2017-02-20T11:36:45.452Z,13
2017-02-20T11:46:45.524Z,14
2017-02-20T11:56:45.502Z,12
2017-02-20T12:06:45.659Z,11
2017-02-20T12:16:45.458Z,11
2017-02-20T12:26:45.483Z,12
2017-02-20T12:36:45.525Z,11
2017-02-20T12:46:45.609Z,11
2017-02-20T12:56:45.655Z,10
2017-02-20T13:06:45.652Z,9
2017-02-20T13:16:45.681Z,13
2017-02-20T13:26:45.629Z,11
2017-02-20T13:36:45.631Z,10
2017-02-20T13:46:45.655Z,13
2017-02-20T13:56:45.689Z,12
2017-02-20T14:06:45.739Z,11
2017-02-20T14:16:46.121Z,12
2017-02-20T14:26:45.713Z,12
2017-02-20T14:36:45.651Z,12
2017-02-20T14:46:45.706Z,12
2017-02-20T14:56:45.759Z,17
2017-02-20T15:06:45.706Z,13
2017-02-20T15:16:45.729Z,12
2017-02-20T15:26:45.727Z,14
2017-02-20T15:36:45.714Z,11
2017-02-20T15:46:46.511Z,11
2017-02-20T15:56:45.775Z,11
2017-02-20T16:06:45.804Z,11
2017-02-20T16:16:45.801Z,11
2017-02-20T16:26:45.830Z,11
2017-02-20T16:36:45.750Z,9
2017-02-20T16:46:45.804Z,9
2017-02-20T16:56:45.796Z,10
2017-02-20T17:06:45.783Z,8
2017-02-20T17:16:45.879Z,9
2017-02-20T17:26:45.970Z,10
2017-02-20T17:36:45.847Z,9
2017-02-20T17:46:45.865Z,10
2017-02-20T17:56:45.917Z,13
2017-02-20T18:06:45.821Z,14
2017-02-20T18:16:45.792Z,15
2017-02-20T18:26:45.763Z,15
2017-02-20T18:36:45.805Z,17
2017-02-20T18:46:45.805Z,21
2017-02-20T18:56:45.768Z,19
2017-02-20T19:06:45.833Z,26
2017-02-20T19:16:45.851Z,29
2017-02-20T19:26:45.803Z,29
2017-02-20T19:36:46.201Z,26
2017-02-20T19:46:45.845Z,30
2017-02-20T19:56:45.895Z,28
2017-02-20T20:06:46.619Z,23
2017-02-20T20:16:45.951Z,20
2017-02-20T20:26:45.926Z,17
2017-02-20T20:36:45.940Z,14
2017-02-20T20:46:45.893Z,14
2017-02-20T20:56:45.931Z,12
2017-02-20T21:06:45.900Z,13
2017-02-20T21:16:45.993Z,12
2017-02-20T21:26:45.954Z,9
2017-02-20T21:36:45.943Z,11
2017-02-20T21:46:46.091Z,14
2017-02-20T21:56:46.326Z,15
2017-02-20T22:06:46.032Z,16
2017-02-20T22:16:46.105Z,14
2017-02-20T22:26:46.115Z,14
2017-02-20T22:36:46.214Z,15
2017-02-20T22:46:53.741Z,14
2017-02-20T22:56:46.132Z,15
2017-02-20T23:06:46.381Z,16
2017-02-20T23:16:46.211Z,15
2017-02-20T23:26:46.098Z,13
2017-02-20T23:36:46.157Z,14
2017-02-20T23:46:46.149Z,14
2017-02-20T23:56:46.173Z,14
